Florencia — IBPD — position and weather

sailwx.info

Track history (hours):
 
Tides and Currents Weather Stations Pressure Air Temp Water Temp Dewpoint Dewpoint Depression Visibility Wind Speed Wind Dir Waves Ship Positions

Florencia

Last reported at 2017-Apr-29 00:09 UTC. Time now 2017-Apr-29 23:12 UTC.
Position N 39°02' E 015°15'.

Length 186 m; draft 6 m.

Type: Passenger vessel. MMSI: 247105900.

Date/timePositionNaut miles runAvg speedWind from/ knotsBaromVisibWave heightAir tempDewpointWater temp
2017-Apr-29 00:09N 39°02' E 015°15'321.2
2017-Apr-29 00:00N 38°59' E 015°17'1221.5
2017-Apr-28 23:28N 38°49' E 015°23'1121.2
2017-Apr-28 22:57N 38°39' E 015°29'1021.4
2017-Apr-28 22:31N 38°30' E 015°35'1121.7
2017-Apr-28 22:00N 38°21' E 015°41'816.3
2017-Apr-28 21:30N 38°13' E 015°37'1121.2
2017-Apr-28 21:01N 38°03' E 015°34'1121.7
2017-Apr-28 20:30N 37°53' E 015°28'1122.2
2017-Apr-28 20:00N 37°43' E 015°22'1222.1
2017-Apr-28 19:29N 37°33' E 015°14'8 0.6
2017-Apr-28 06:32N 37°29' E 015°06'213.0
2017-Apr-28 06:23N 37°28' E 015°08'821.0
2017-Apr-28 05:59N 37°33' E 015°17'1122.0
2017-Apr-28 05:30N 37°43' E 015°22'1121.8
2017-Apr-28 05:00N 37°53' E 015°28'1122.1
2017-Apr-28 04:31N 38°03' E 015°33'1121.2
2017-Apr-28 04:01N 38°14' E 015°36'714.6
2017-Apr-28 03:31N 38°21' E 015°38'1020.8
2017-Apr-28 03:00N 38°31' E 015°33'1121.6
2017-Apr-28 02:30N 38°40' E 015°27'1121.8
2017-Apr-28 02:00N 38°50' E 015°21'1121.5
2017-Apr-28 01:30N 38°60' E 015°15'1221.1
2017-Apr-28 00:56N 39°11' E 015°08'11 0.5
2017-Apr-27 02:52N 39°01' E 015°16'822.2
2017-Apr-27 02:31N 38°54' E 015°21'1122.0
2017-Apr-27 02:00N 38°44' E 015°27'1122.0
2017-Apr-27 01:30N 38°34' E 015°33'1122.2
2017-Apr-27 01:00N 38°24' E 015°39'918.5
2017-Apr-27 00:30N 38°15' E 015°39'1019.3
2017-Apr-27 00:00N 38°06' E 015°35'1121.6
2017-Apr-26 23:30N 37°56' E 015°29'1122.1
2017-Apr-26 23:00N 37°46' E 015°23'1121.9
2017-Apr-26 22:30N 37°36' E 015°17'1121.4
2017-Apr-26 22:00N 37°27' E 015°09'10 0.6
2017-Apr-26 05:39N 37°36' E 015°17'322.7
2017-Apr-26 05:30N 37°39' E 015°19'1122.7
2017-Apr-26 05:00N 37°49' E 015°25'1122.2
2017-Apr-26 04:30N 37°59' E 015°30'1020.8
2017-Apr-26 04:00N 38°09' E 015°34'918.5
2017-Apr-26 03:31N 38°17' E 015°40'1019.0
2017-Apr-26 03:00N 38°26' E 015°36'1121.5
2017-Apr-26 02:30N 38°35' E 015°30'1121.9
2017-Apr-26 02:00N 38°45' E 015°24'1121.4
2017-Apr-26 01:30N 38°55' E 015°17'1121.4
2017-Apr-26 01:00N 39°04' E 015°12'10321.4
2017-Apr-25 20:13N 40°38' E 014°17'522.3
2017-Apr-25 20:00N 40°43' E 014°17'7 6.5
2017-Apr-25 18:50N 40°50' E 014°16'0 0.0
2017-Apr-25 18:31N 40°50' E 014°16'0 0.0
2017-Apr-25 18:00N 40°50' E 014°16'119 7.9
2017-Apr-25 02:59N 39°01' E 015°16'1122.1
2017-Apr-25 02:28N 38°51' E 015°22'1022.2
2017-Apr-25 02:00N 38°42' E 015°28'1121.7
2017-Apr-25 01:30N 38°32' E 015°34'1122.1
2017-Apr-25 01:00N 38°22' E 015°40'917.5
2017-Apr-25 00:30N 38°14' E 015°37'1019.6
2017-Apr-25 00:00N 38°04' E 015°34'1122.0
2017-Apr-24 23:31N 37°54' E 015°28'1122.0
2017-Apr-24 23:00N 37°45' E 015°22'1121.6
2017-Apr-24 22:30N 37°35' E 015°16'1016.3
2017-Apr-24 21:54N 37°29' E 015°06'1 0.0
2017-Apr-24 04:54N 37°29' E 015°06'510.6
2017-Apr-24 04:28N 37°29' E 015°11'1021.1
2017-Apr-24 04:00N 37°37' E 015°19'1121.9
2017-Apr-24 03:30N 37°47' E 015°24'1121.8
2017-Apr-24 03:01N 37°57' E 015°29'1121.8
2017-Apr-24 02:31N 38°07' E 015°35'918.5
2017-Apr-24 02:00N 38°16' E 015°40'918.3
2017-Apr-24 01:31N 38°25' E 015°37'1121.2
2017-Apr-24 01:01N 38°34' E 015°32'1120.7
2017-Apr-24 00:30N 38°43' E 015°25'1020.5
2017-Apr-23 23:59N 38°53' E 015°19'1020.5
2017-Apr-23 23:30N 39°02' E 015°13'1120.2
2017-Apr-23 22:56N 39°12' E 015°07'21 1.0
2017-Apr-23 02:43N 38°54' E 015°20'521.2
2017-Apr-23 02:30N 38°49' E 015°23'1121.3
2017-Apr-23 02:00N 38°40' E 015°29'1020.9
2017-Apr-23 01:31N 38°31' E 015°35'1121.0
2017-Apr-23 01:01N 38°21' E 015°41'815.7
2017-Apr-23 00:31N 38°14' E 015°37'1020.1
2017-Apr-23 00:00N 38°04' E 015°34'1121.7
2017-Apr-22 23:30N 37°54' E 015°28'1121.8
2017-Apr-22 23:00N 37°45' E 015°22'1121.8
2017-Apr-22 22:30N 37°35' E 015°15'9 0.6
2017-Apr-22 06:26N 37°29' E 015°06'713.7
2017-Apr-22 05:55N 37°31' E 015°14'921.8
2017-Apr-22 05:30N 37°39' E 015°20'1121.9
2017-Apr-22 05:00N 37°49' E 015°25'1122.1
2017-Apr-22 04:30N 37°59' E 015°31'1122.4
2017-Apr-22 04:01N 38°10' E 015°35'1019.7
2017-Apr-22 03:30N 38°19' E 015°40'1122.4
2017-Apr-22 03:00N 38°29' E 015°34'1122.3
2017-Apr-22 02:30N 38°39' E 015°27'1121.8
2017-Apr-22 02:00N 38°49' E 015°21'1121.7
2017-Apr-22 01:30N 38°58' E 015°15'2 0.1
2017-Apr-21 00:10N 38°60' E 015°16'521.6
2017-Apr-20 23:55N 38°55' E 015°19'921.7
2017-Apr-20 23:30N 38°47' E 015°24'1121.8
2017-Apr-20 23:00N 38°37' E 015°31'1121.4
2017-Apr-20 22:30N 38°28' E 015°37'1121.7
2017-Apr-20 22:00N 38°19' E 015°44'918.8
2017-Apr-20 21:30N 38°11' E 015°37'1020.1
2017-Apr-20 21:00N 38°02' E 015°32'1122.1
2017-Apr-20 20:30N 37°52' E 015°27'1122.4
2017-Apr-20 20:00N 37°41' E 015°21'1121.9
2017-Apr-20 19:29N 37°32' E 015°13'6 0.5
2017-Apr-20 06:36N 37°28' E 015°06'1519.3
2017-Apr-20 05:48N 37°39' E 015°20'722.2
2017-Apr-20 05:30N 37°45' E 015°24'1122.0
2017-Apr-20 05:00N 37°55' E 015°29'1122.4
2017-Apr-20 04:31N 38°06' E 015°34'1121.5
2017-Apr-20 04:01N 38°15' E 015°40'611.6
2017-Apr-20 03:30N 38°21' E 015°38'1122.5
2017-Apr-20 03:00N 38°31' E 015°32'1122.2
2017-Apr-20 02:30N 38°41' E 015°26'1121.5
2017-Apr-20 02:01N 38°51' E 015°20'1121.6
2017-Apr-20 01:30N 39°01' E 015°14'5 0.2
2017-Apr-19 02:49N 38°58' E 015°18'620.6
2017-Apr-19 02:30N 38°52' E 015°22'1121.1
2017-Apr-19 02:00N 38°43' E 015°28'1020.9
2017-Apr-19 01:30N 38°33' E 015°33'1121.2
2017-Apr-19 01:00N 38°23' E 015°39'816.5
2017-Apr-19 00:31N 38°15' E 015°41'  
Track history (hours):
 
Tides and Currents Weather Stations Pressure Air Temp Water Temp Dewpoint Dewpoint Depression Visibility Wind Speed Wind Dir Waves Ship Positions

Florencia

Last reported at 2017-Apr-29 00:09 UTC. Time now 2017-Apr-29 23:12 UTC.
Position N 39°02' E 015°15'.

Length 186 m; draft 6 m.

Type: Passenger vessel. MMSI: 247105900.

Date/timePositionNaut miles runAvg speedWind from/ knotsBaromVisibWave heightAir tempDewpointWater temp
2017-Apr-29 00:09N 39°02' E 015°15'321.2
2017-Apr-29 00:00N 38°59' E 015°17'1221.5
2017-Apr-28 23:28N 38°49' E 015°23'1121.2
2017-Apr-28 22:57N 38°39' E 015°29'1021.4
2017-Apr-28 22:31N 38°30' E 015°35'1121.7
2017-Apr-28 22:00N 38°21' E 015°41'816.3
2017-Apr-28 21:30N 38°13' E 015°37'1121.2
2017-Apr-28 21:01N 38°03' E 015°34'1121.7
2017-Apr-28 20:30N 37°53' E 015°28'1122.2
2017-Apr-28 20:00N 37°43' E 015°22'1222.1
2017-Apr-28 19:29N 37°33' E 015°14'8 0.6
2017-Apr-28 06:32N 37°29' E 015°06'213.0
2017-Apr-28 06:23N 37°28' E 015°08'821.0
2017-Apr-28 05:59N 37°33' E 015°17'1122.0
2017-Apr-28 05:30N 37°43' E 015°22'1121.8
2017-Apr-28 05:00N 37°53' E 015°28'1122.1
2017-Apr-28 04:31N 38°03' E 015°33'1121.2
2017-Apr-28 04:01N 38°14' E 015°36'714.6
2017-Apr-28 03:31N 38°21' E 015°38'1020.8
2017-Apr-28 03:00N 38°31' E 015°33'1121.6
2017-Apr-28 02:30N 38°40' E 015°27'1121.8
2017-Apr-28 02:00N 38°50' E 015°21'1121.5
2017-Apr-28 01:30N 38°60' E 015°15'1221.1
2017-Apr-28 00:56N 39°11' E 015°08'11 0.5
2017-Apr-27 02:52N 39°01' E 015°16'822.2
2017-Apr-27 02:31N 38°54' E 015°21'1122.0
2017-Apr-27 02:00N 38°44' E 015°27'1122.0
2017-Apr-27 01:30N 38°34' E 015°33'1122.2
2017-Apr-27 01:00N 38°24' E 015°39'918.5
2017-Apr-27 00:30N 38°15' E 015°39'1019.3
2017-Apr-27 00:00N 38°06' E 015°35'1121.6
2017-Apr-26 23:30N 37°56' E 015°29'1122.1
2017-Apr-26 23:00N 37°46' E 015°23'1121.9
2017-Apr-26 22:30N 37°36' E 015°17'1121.4
2017-Apr-26 22:00N 37°27' E 015°09'10 0.6
2017-Apr-26 05:39N 37°36' E 015°17'322.7
2017-Apr-26 05:30N 37°39' E 015°19'1122.7
2017-Apr-26 05:00N 37°49' E 015°25'1122.2
2017-Apr-26 04:30N 37°59' E 015°30'1020.8
2017-Apr-26 04:00N 38°09' E 015°34'918.5
2017-Apr-26 03:31N 38°17' E 015°40'1019.0
2017-Apr-26 03:00N 38°26' E 015°36'1121.5
2017-Apr-26 02:30N 38°35' E 015°30'1121.9
2017-Apr-26 02:00N 38°45' E 015°24'1121.4
2017-Apr-26 01:30N 38°55' E 015°17'1121.4
2017-Apr-26 01:00N 39°04' E 015°12'10321.4
2017-Apr-25 20:13N 40°38' E 014°17'522.3
2017-Apr-25 20:00N 40°43' E 014°17'7 6.5
2017-Apr-25 18:50N 40°50' E 014°16'0 0.0
2017-Apr-25 18:31N 40°50' E 014°16'0 0.0
2017-Apr-25 18:00N 40°50' E 014°16'119 7.9
2017-Apr-25 02:59N 39°01' E 015°16'1122.1
2017-Apr-25 02:28N 38°51' E 015°22'1022.2
2017-Apr-25 02:00N 38°42' E 015°28'1121.7
2017-Apr-25 01:30N 38°32' E 015°34'1122.1
2017-Apr-25 01:00N 38°22' E 015°40'917.5
2017-Apr-25 00:30N 38°14' E 015°37'1019.6
2017-Apr-25 00:00N 38°04' E 015°34'1122.0
2017-Apr-24 23:31N 37°54' E 015°28'1122.0
2017-Apr-24 23:00N 37°45' E 015°22'1121.6
2017-Apr-24 22:30N 37°35' E 015°16'1016.3
2017-Apr-24 21:54N 37°29' E 015°06'1 0.0
2017-Apr-24 04:54N 37°29' E 015°06'510.6
2017-Apr-24 04:28N 37°29' E 015°11'1021.1
2017-Apr-24 04:00N 37°37' E 015°19'1121.9
2017-Apr-24 03:30N 37°47' E 015°24'1121.8
2017-Apr-24 03:01N 37°57' E 015°29'1121.8
2017-Apr-24 02:31N 38°07' E 015°35'918.5
2017-Apr-24 02:00N 38°16' E 015°40'918.3
2017-Apr-24 01:31N 38°25' E 015°37'1121.2
2017-Apr-24 01:01N 38°34' E 015°32'1120.7
2017-Apr-24 00:30N 38°43' E 015°25'1020.5
2017-Apr-23 23:59N 38°53' E 015°19'1020.5
2017-Apr-23 23:30N 39°02' E 015°13'1120.2
2017-Apr-23 22:56N 39°12' E 015°07'21 1.0
2017-Apr-23 02:43N 38°54' E 015°20'521.2
2017-Apr-23 02:30N 38°49' E 015°23'1121.3
2017-Apr-23 02:00N 38°40' E 015°29'1020.9
2017-Apr-23 01:31N 38°31' E 015°35'1121.0
2017-Apr-23 01:01N 38°21' E 015°41'815.7
2017-Apr-23 00:31N 38°14' E 015°37'1020.1
2017-Apr-23 00:00N 38°04' E 015°34'1121.7
2017-Apr-22 23:30N 37°54' E 015°28'1121.8
2017-Apr-22 23:00N 37°45' E 015°22'1121.8
2017-Apr-22 22:30N 37°35' E 015°15'9 0.6
2017-Apr-22 06:26N 37°29' E 015°06'713.7
2017-Apr-22 05:55N 37°31' E 015°14'921.8
2017-Apr-22 05:30N 37°39' E 015°20'1121.9
2017-Apr-22 05:00N 37°49' E 015°25'1122.1
2017-Apr-22 04:30N 37°59' E 015°31'1122.4
2017-Apr-22 04:01N 38°10' E 015°35'1019.7
2017-Apr-22 03:30N 38°19' E 015°40'1122.4
2017-Apr-22 03:00N 38°29' E 015°34'1122.3
2017-Apr-22 02:30N 38°39' E 015°27'1121.8
2017-Apr-22 02:00N 38°49' E 015°21'1121.7
2017-Apr-22 01:30N 38°58' E 015°15'2 0.1
2017-Apr-21 00:10N 38°60' E 015°16'521.6
2017-Apr-20 23:55N 38°55' E 015°19'921.7
2017-Apr-20 23:30N 38°47' E 015°24'1121.8
2017-Apr-20 23:00N 38°37' E 015°31'1121.4
2017-Apr-20 22:30N 38°28' E 015°37'1121.7
2017-Apr-20 22:00N 38°19' E 015°44'918.8
2017-Apr-20 21:30N 38°11' E 015°37'1020.1
2017-Apr-20 21:00N 38°02' E 015°32'1122.1
2017-Apr-20 20:30N 37°52' E 015°27'1122.4
2017-Apr-20 20:00N 37°41' E 015°21'1121.9
2017-Apr-20 19:29N 37°32' E 015°13'6 0.5
2017-Apr-20 06:36N 37°28' E 015°06'1519.3
2017-Apr-20 05:48N 37°39' E 015°20'722.2
2017-Apr-20 05:30N 37°45' E 015°24'1122.0
2017-Apr-20 05:00N 37°55' E 015°29'1122.4
2017-Apr-20 04:31N 38°06' E 015°34'1121.5
2017-Apr-20 04:01N 38°15' E 015°40'611.6
2017-Apr-20 03:30N 38°21' E 015°38'1122.5
2017-Apr-20 03:00N 38°31' E 015°32'1122.2
2017-Apr-20 02:30N 38°41' E 015°26'1121.5
2017-Apr-20 02:01N 38°51' E 015°20'1121.6
2017-Apr-20 01:30N 39°01' E 015°14'5 0.2
2017-Apr-19 02:49N 38°58' E 015°18'620.6
2017-Apr-19 02:30N 38°52' E 015°22'1121.1
2017-Apr-19 02:00N 38°43' E 015°28'1020.9
2017-Apr-19 01:30N 38°33' E 015°33'1121.2
2017-Apr-19 01:00N 38°23' E 015°39'816.5
2017-Apr-19 00:31N 38°15' E 015°41'  

Dump ship's entire track history